createdAt,value
2019-03-27T00:00:09.572Z,7.50
2019-03-27T00:02:39.721Z,7.40
2019-03-27T00:05:08.461Z,7.70
2019-03-27T00:07:37.067Z,7.90
2019-03-27T00:10:09.327Z,7.90
2019-03-27T00:12:38.397Z,7.90
2019-03-27T00:15:13.142Z,7.90
2019-03-27T00:17:39.818Z,8.10
2019-03-27T00:20:10.474Z,8.40
2019-03-27T00:22:39.100Z,8.10
2019-03-27T00:25:09.154Z,7.80
2019-03-27T00:27:37.802Z,7.60
2019-03-27T00:30:10.395Z,7.40
2019-03-27T00:32:39.050Z,7.60
2019-03-27T00:35:09.342Z,7.90
2019-03-27T00:37:38.160Z,8.10
2019-03-27T00:40:07.414Z,7.90
2019-03-27T00:42:36.110Z,8.00
2019-03-27T00:45:07.044Z,8.00
2019-03-27T00:47:35.639Z,8.00
2019-03-27T00:50:06.107Z,7.80
2019-03-27T00:52:34.701Z,7.70
2019-03-27T00:55:03.720Z,7.50
2019-03-27T00:57:32.303Z,7.40
2019-03-27T01:00:01.089Z,7.60
2019-03-27T01:02:29.714Z,7.70
2019-03-27T01:04:58.370Z,7.80
2019-03-27T01:07:26.989Z,7.70
2019-03-27T01:09:55.614Z,7.60
2019-03-27T01:12:24.156Z,7.60
2019-03-27T01:14:52.731Z,7.80
2019-03-27T01:17:21.303Z,8.10
2019-03-27T01:19:49.891Z,8.00
2019-03-27T01:22:18.478Z,7.80
2019-03-27T01:24:47.021Z,7.70
2019-03-27T01:27:16.016Z,7.60
2019-03-27T01:29:44.591Z,7.50
2019-03-27T01:32:13.165Z,7.50
2019-03-27T01:34:41.753Z,7.40
2019-03-27T01:37:10.377Z,7.40
2019-03-27T01:39:38.922Z,7.40
2019-03-27T01:42:07.525Z,7.40
2019-03-27T01:44:36.507Z,7.30
2019-03-27T01:47:05.330Z,7.20
2019-03-27T01:49:33.877Z,7.20
2019-03-27T01:52:02.883Z,7.10
2019-03-27T01:54:31.474Z,7.10
2019-03-27T01:57:00.210Z,7.00
2019-03-27T01:59:28.795Z,6.90
2019-03-27T02:01:57.376Z,6.80
2019-03-27T02:04:25.985Z,6.80
2019-03-27T02:06:54.970Z,6.70
2019-03-27T02:09:23.548Z,6.80
2019-03-27T02:11:52.062Z,7.00
2019-03-27T02:14:20.620Z,7.40
2019-03-27T02:16:49.147Z,7.40
2019-03-27T02:19:17.687Z,7.30
2019-03-27T02:21:46.212Z,7.20
2019-03-27T02:24:14.777Z,7.30
2019-03-27T02:26:43.428Z,7.40
2019-03-27T02:29:12.044Z,7.50
2019-03-27T02:31:40.679Z,7.50
2019-03-27T02:34:09.263Z,7.30
2019-03-27T02:36:37.821Z,7.20
2019-03-27T02:39:06.752Z,7.00
2019-03-27T02:41:35.339Z,7.00
2019-03-27T02:44:04.417Z,7.10
2019-03-27T02:46:32.974Z,7.20
2019-03-27T02:49:01.520Z,7.30
2019-03-27T02:51:30.163Z,7.10
2019-03-27T02:53:58.805Z,7.00
2019-03-27T02:56:27.343Z,6.90
2019-03-27T02:58:56.343Z,7.00
2019-03-27T03:01:25.328Z,7.10
2019-03-27T03:03:53.873Z,7.10
2019-03-27T03:06:22.647Z,7.30
2019-03-27T03:08:51.573Z,7.50
2019-03-27T03:11:20.202Z,7.50
2019-03-27T03:13:48.738Z,7.70
2019-03-27T03:16:17.431Z,7.60
2019-03-27T03:18:46.041Z,7.60
2019-03-27T03:21:14.612Z,7.80
2019-03-27T03:23:43.707Z,7.60
2019-03-27T03:26:12.409Z,7.30
2019-03-27T03:28:41.089Z,7.00
2019-03-27T03:31:09.725Z,7.00
2019-03-27T03:33:38.248Z,7.00
2019-03-27T03:36:06.969Z,6.80
2019-03-27T03:38:35.578Z,6.90
2019-03-27T03:41:04.276Z,7.00
2019-03-27T03:43:32.850Z,7.00
2019-03-27T03:46:01.442Z,7.10
2019-03-27T03:48:29.970Z,7.10
2019-03-27T03:51:00.068Z,7.20
2019-03-27T03:53:30.444Z,7.00
2019-03-27T03:56:00.805Z,6.80
2019-03-27T03:58:32.542Z,6.80
2019-03-27T04:01:01.498Z,6.80
2019-03-27T04:03:32.161Z,6.90
2019-03-27T04:06:00.705Z,6.90
2019-03-27T04:08:29.312Z,6.80
2019-03-27T04:10:58.306Z,6.80
2019-03-27T04:13:26.898Z,6.90
2019-03-27T04:15:55.499Z,7.00
2019-03-27T04:18:23.974Z,7.00
2019-03-27T04:20:52.598Z,7.00
2019-03-27T04:23:21.265Z,7.10
2019-03-27T04:26:10.377Z,7.30
2019-03-27T04:28:20.248Z,7.30
2019-03-27T04:30:48.918Z,7.40
2019-03-27T04:33:17.473Z,7.60
2019-03-27T04:35:46.041Z,7.70
2019-03-27T04:38:14.670Z,7.80
2019-03-27T04:40:43.304Z,8.00
2019-03-27T04:43:11.995Z,7.90
2019-03-27T04:45:40.554Z,7.80
2019-03-27T04:48:09.179Z,7.70
2019-03-27T04:50:37.816Z,7.70
2019-03-27T04:53:06.502Z,7.40
2019-03-27T04:55:35.078Z,7.40
2019-03-27T04:58:03.714Z,7.40
2019-03-27T05:00:32.328Z,7.50
2019-03-27T05:03:00.926Z,7.40
2019-03-27T05:05:29.418Z,7.40
2019-03-27T05:07:57.944Z,7.20
2019-03-27T05:10:26.472Z,7.30
2019-03-27T05:12:55.071Z,7.20
2019-03-27T05:15:23.652Z,7.40
2019-03-27T05:17:52.241Z,7.60
2019-03-27T05:20:20.860Z,7.70
2019-03-27T05:22:49.449Z,7.70
2019-03-27T05:25:18.104Z,7.70
2019-03-27T05:27:46.745Z,7.50
2019-03-27T05:30:18.373Z,7.50
2019-03-27T05:32:46.967Z,7.50
2019-03-27T05:35:15.527Z,7.70
2019-03-27T05:37:44.111Z,7.70
2019-03-27T05:40:12.636Z,7.70
2019-03-27T05:42:41.132Z,7.60
2019-03-27T05:45:09.837Z,7.50
2019-03-27T05:47:38.460Z,7.40
2019-03-27T05:50:07.689Z,7.50
2019-03-27T05:52:42.153Z,7.70
2019-03-27T05:55:13.793Z,7.70
2019-03-27T05:57:45.493Z,7.60
2019-03-27T06:00:19.074Z,7.70
2019-03-27T06:02:47.964Z,7.90
2019-03-27T06:05:20.592Z,8.10
2019-03-27T06:07:52.243Z,8.10
2019-03-27T06:10:21.166Z,8.30
2019-03-27T06:12:51.304Z,8.30
2019-03-27T06:15:19.889Z,8.30
2019-03-27T06:17:50.018Z,8.40
2019-03-27T06:20:18.657Z,8.40
2019-03-27T06:22:49.078Z,8.60
2019-03-27T06:25:17.655Z,8.80
2019-03-27T06:27:46.693Z,8.90
2019-03-27T06:30:16.003Z,8.80
2019-03-27T06:32:45.316Z,8.60
2019-03-27T06:35:20.064Z,8.70
2019-03-27T06:37:51.861Z,8.80
2019-03-27T06:40:20.499Z,8.70
2019-03-27T06:42:49.100Z,8.50
2019-03-27T06:45:17.856Z,8.40
2019-03-27T06:47:46.388Z,8.30
2019-03-27T06:50:16.609Z,8.30
2019-03-27T06:52:45.319Z,8.50
2019-03-27T06:55:14.109Z,8.80
2019-03-27T06:57:43.182Z,9.00
2019-03-27T07:00:12.744Z,9.30
2019-03-27T07:02:41.320Z,9.60
2019-03-27T07:05:10.170Z,9.90
2019-03-27T07:07:38.836Z,10.10
2019-03-27T07:10:08.744Z,10.40
2019-03-27T07:12:37.488Z,10.60
2019-03-27T07:15:08.168Z,10.90
2019-03-27T07:17:36.795Z,11.40
2019-03-27T07:20:08.430Z,11.50
2019-03-27T07:22:36.995Z,11.60
2019-03-27T07:25:07.818Z,11.30
2019-03-27T07:27:36.362Z,11.50
2019-03-27T07:30:06.667Z,11.20
2019-03-27T07:32:35.226Z,11.20
2019-03-27T07:35:04.681Z,11.30
2019-03-27T07:37:33.202Z,11.10
2019-03-27T07:40:01.848Z,10.90
2019-03-27T07:42:30.833Z,10.60
2019-03-27T07:44:59.420Z,10.80
2019-03-27T07:47:32.425Z,11.00
2019-03-27T07:50:00.936Z,11.30
2019-03-27T07:52:29.603Z,11.30
2019-03-27T07:54:58.135Z,10.90
2019-03-27T07:57:27.924Z,10.80
2019-03-27T07:59:56.487Z,10.90
2019-03-27T08:02:24.997Z,11.40
2019-03-27T08:04:53.553Z,11.50
2019-03-27T08:07:27.122Z,11.80
2019-03-27T08:09:52.456Z,11.80
2019-03-27T08:12:20.986Z,11.80
2019-03-27T08:14:49.530Z,11.70
2019-03-27T08:17:18.069Z,11.90
2019-03-27T08:19:46.592Z,12.10
2019-03-27T08:22:15.181Z,12.30
2019-03-27T08:24:44.600Z,12.60
2019-03-27T08:27:14.587Z,12.10
2019-03-27T08:29:43.691Z,11.90
2019-03-27T08:32:12.189Z,12.20
2019-03-27T08:34:41.003Z,12.50
2019-03-27T08:37:09.570Z,12.30
2019-03-27T08:39:38.022Z,12.50
2019-03-27T08:42:06.527Z,12.60
2019-03-27T08:44:35.007Z,12.40
2019-03-27T08:47:03.572Z,12.60
2019-03-27T08:49:32.165Z,13.20
2019-03-27T08:52:01.055Z,13.70
2019-03-27T08:54:29.616Z,13.90
2019-03-27T08:56:58.152Z,13.70
2019-03-27T08:59:26.676Z,14.10
2019-03-27T09:01:55.223Z,14.40
2019-03-27T09:04:23.723Z,14.70
2019-03-27T09:06:52.281Z,15.10
2019-03-27T09:09:20.751Z,15.30
2019-03-27T09:11:49.263Z,15.70
2019-03-27T09:14:17.867Z,15.70
2019-03-27T09:16:46.465Z,16.20
2019-03-27T09:19:14.972Z,16.80
2019-03-27T09:21:43.544Z,16.60
2019-03-27T09:24:12.063Z,15.90
2019-03-27T09:26:40.879Z,15.00
2019-03-27T09:29:09.396Z,14.20
2019-03-27T09:31:44.558Z,14.20
2019-03-27T09:34:08.160Z,13.60
2019-03-27T09:36:36.781Z,11.80
2019-03-27T09:39:08.415Z,12.40
2019-03-27T09:41:36.936Z,12.80
2019-03-27T09:44:05.686Z,13.10
2019-03-27T09:46:34.221Z,13.90
2019-03-27T09:49:02.819Z,14.70
2019-03-27T09:51:31.898Z,14.90
2019-03-27T09:54:00.471Z,14.20
2019-03-27T09:56:29.065Z,14.20
2019-03-27T09:58:57.828Z,14.60
2019-03-27T10:01:26.308Z,14.80
2019-03-27T10:03:54.781Z,13.80
2019-03-27T10:06:23.260Z,14.50
2019-03-27T10:08:51.792Z,14.90
2019-03-27T10:11:23.634Z,14.80
2019-03-27T10:13:50.464Z,14.50
2019-03-27T10:16:19.061Z,14.90
2019-03-27T10:18:47.771Z,15.20
2019-03-27T10:21:16.243Z,15.60
2019-03-27T10:23:44.712Z,16.20
2019-03-27T10:26:13.537Z,16.20
2019-03-27T10:28:42.061Z,16.20
2019-03-27T10:31:10.603Z,16.20
2019-03-27T10:33:39.128Z,12.60
2019-03-27T10:36:07.607Z,11.60
2019-03-27T10:38:36.065Z,12.00
2019-03-27T10:41:04.503Z,12.60
2019-03-27T10:43:32.978Z,12.80
2019-03-27T10:46:01.429Z,12.20
2019-03-27T10:48:29.926Z,12.70
2019-03-27T10:50:58.447Z,12.80
2019-03-27T10:53:26.896Z,13.20
2019-03-27T10:55:55.361Z,13.20
2019-03-27T10:58:23.900Z,12.60
2019-03-27T11:00:52.430Z,12.70
2019-03-27T11:03:20.908Z,12.60
2019-03-27T11:05:49.488Z,13.10
2019-03-27T11:08:18.026Z,12.60
2019-03-27T11:10:46.506Z,12.00
2019-03-27T11:13:14.999Z,12.20
2019-03-27T11:15:48.071Z,11.70
2019-03-27T11:18:16.622Z,11.50
2019-03-27T11:20:45.262Z,11.50
2019-03-27T11:23:13.840Z,11.20
2019-03-27T11:25:42.398Z,10.90
2019-03-27T11:28:10.907Z,11.10
2019-03-27T11:30:41.237Z,11.40
2019-03-27T11:33:09.929Z,11.70
2019-03-27T11:35:38.491Z,11.60
2019-03-27T11:38:07.108Z,11.90
2019-03-27T11:40:35.593Z,11.50
2019-03-27T11:43:04.829Z,11.30
2019-03-27T11:45:33.413Z,11.60
2019-03-27T11:48:02.550Z,11.60
2019-03-27T11:50:43.699Z,11.60
2019-03-27T11:53:01.422Z,11.20
2019-03-27T11:55:29.938Z,11.50
2019-03-27T11:57:58.472Z,11.50
2019-03-27T12:00:27.110Z,11.80
2019-03-27T12:02:55.649Z,11.40
2019-03-27T12:05:24.161Z,11.30
2019-03-27T12:07:52.631Z,11.40
2019-03-27T12:10:21.157Z,11.30
2019-03-27T12:12:49.822Z,11.20
2019-03-27T12:15:21.423Z,11.80
2019-03-27T12:17:50.005Z,11.80
2019-03-27T12:20:18.845Z,11.40
2019-03-27T12:22:57.333Z,11.10
2019-03-27T12:25:17.552Z,11.10
2019-03-27T12:27:46.048Z,11.10
2019-03-27T12:30:15.042Z,11.60
2019-03-27T12:32:43.617Z,12.20
2019-03-27T12:35:12.174Z,11.70
2019-03-27T12:37:40.752Z,11.70
2019-03-27T12:40:11.714Z,11.90
2019-03-27T12:42:39.574Z,11.60
2019-03-27T12:45:08.142Z,11.50
2019-03-27T12:47:36.711Z,11.70
2019-03-27T12:50:07.321Z,11.80
2019-03-27T12:52:35.852Z,12.10
2019-03-27T12:55:05.852Z,11.30
2019-03-27T12:57:34.416Z,11.20
2019-03-27T13:00:02.945Z,11.20
2019-03-27T13:02:31.610Z,11.10
2019-03-27T13:05:00.367Z,11.20
2019-03-27T13:07:28.817Z,11.30
2019-03-27T13:09:57.293Z,11.40
2019-03-27T13:12:25.778Z,11.80
2019-03-27T13:14:54.223Z,12.60
2019-03-27T13:17:22.772Z,13.10
2019-03-27T13:19:51.226Z,13.30
2019-03-27T13:22:19.769Z,12.80
2019-03-27T13:24:48.253Z,12.40
2019-03-27T13:27:16.804Z,12.60
2019-03-27T13:29:45.665Z,12.80
2019-03-27T13:32:14.154Z,13.40
2019-03-27T13:34:42.608Z,13.10
2019-03-27T13:37:11.051Z,12.10
2019-03-27T13:39:39.554Z,12.20
2019-03-27T13:42:08.001Z,11.80
2019-03-27T13:44:37.608Z,12.30
2019-03-27T13:47:06.468Z,12.70
2019-03-27T13:49:35.044Z,12.90
2019-03-27T13:52:03.572Z,13.20
2019-03-27T13:54:32.054Z,13.10
2019-03-27T13:57:00.514Z,13.30
2019-03-27T13:59:29.761Z,13.70
2019-03-27T14:01:58.267Z,13.50
2019-03-27T14:04:26.867Z,13.80
2019-03-27T14:06:55.316Z,14.10
2019-03-27T14:09:23.805Z,14.00
2019-03-27T14:11:52.276Z,13.90
2019-03-27T14:14:20.732Z,14.00
2019-03-27T14:16:49.305Z,13.30
2019-03-27T14:19:17.773Z,12.90
2019-03-27T14:21:54.577Z,12.30
2019-03-27T14:24:16.432Z,12.40
2019-03-27T14:26:45.702Z,12.80
2019-03-27T14:29:14.292Z,12.00
2019-03-27T14:31:42.797Z,12.00
2019-03-27T14:34:11.266Z,12.60
2019-03-27T14:36:39.732Z,13.00
2019-03-27T14:39:08.528Z,12.50
2019-03-27T14:41:37.865Z,12.80
2019-03-27T14:44:06.438Z,12.80
2019-03-27T14:46:35.172Z,13.00
2019-03-27T14:49:03.704Z,13.30
2019-03-27T14:51:32.263Z,13.70
2019-03-27T14:54:00.729Z,13.90
2019-03-27T14:56:29.350Z,14.10
2019-03-27T14:58:58.167Z,13.80
2019-03-27T15:01:26.649Z,13.90
2019-03-27T15:03:55.116Z,13.90
2019-03-27T15:06:23.606Z,14.20
2019-03-27T15:08:52.163Z,14.10
2019-03-27T15:11:20.632Z,13.80
2019-03-27T15:13:49.102Z,14.10
2019-03-27T15:16:17.749Z,14.00
2019-03-27T15:18:47.832Z,13.20
2019-03-27T15:21:16.707Z,12.40
2019-03-27T15:23:46.882Z,12.40
2019-03-27T15:26:15.691Z,12.50
2019-03-27T15:28:50.899Z,13.00
2019-03-27T15:31:20.915Z,13.30
2019-03-27T15:33:57.429Z,12.90
2019-03-27T15:36:25.910Z,12.00
2019-03-27T15:38:54.434Z,11.70
2019-03-27T15:41:22.939Z,11.80
2019-03-27T15:43:51.418Z,12.30
2019-03-27T15:46:19.955Z,11.90
2019-03-27T15:48:48.503Z,11.80
2019-03-27T15:51:17.054Z,12.10
2019-03-27T15:53:47.645Z,12.70
2019-03-27T15:56:16.017Z,12.40
2019-03-27T15:58:46.123Z,12.10
2019-03-27T16:01:15.157Z,12.10
2019-03-27T16:03:43.744Z,12.30
2019-03-27T16:06:12.303Z,12.50
2019-03-27T16:08:40.788Z,12.60
2019-03-27T16:11:09.388Z,11.70
2019-03-27T16:13:37.852Z,11.60
2019-03-27T16:16:08.122Z,11.90
2019-03-27T16:18:49.002Z,11.80
2019-03-27T16:21:18.320Z,11.60
2019-03-27T16:23:48.543Z,11.80
2019-03-27T16:26:19.504Z,11.90
2019-03-27T16:28:48.249Z,11.60
2019-03-27T16:31:16.995Z,11.50
2019-03-27T16:33:45.730Z,11.80
2019-03-27T16:36:20.707Z,11.50
2019-03-27T16:38:49.372Z,11.20
2019-03-27T16:41:18.128Z,11.10
2019-03-27T16:43:46.775Z,11.20
2019-03-27T16:46:15.483Z,11.30
2019-03-27T16:48:44.874Z,11.60
2019-03-27T16:51:13.532Z,11.80
2019-03-27T16:53:42.183Z,11.90
2019-03-27T16:56:10.865Z,11.90
2019-03-27T16:58:39.493Z,12.20
2019-03-27T17:01:08.170Z,12.10
2019-03-27T17:03:36.908Z,12.40
2019-03-27T17:06:05.988Z,12.30
2019-03-27T17:08:34.660Z,12.00
2019-03-27T17:11:03.416Z,12.10
2019-03-27T17:13:32.164Z,12.10
2019-03-27T17:16:00.835Z,12.10
2019-03-27T17:18:29.492Z,12.20
2019-03-27T17:20:58.164Z,12.00
2019-03-27T17:23:26.826Z,11.70
2019-03-27T17:25:55.522Z,11.50
2019-03-27T17:28:24.363Z,11.60
2019-03-27T17:30:53.135Z,11.60
2019-03-27T17:33:22.142Z,11.60
2019-03-27T17:35:50.895Z,11.30
2019-03-27T17:38:19.653Z,11.40
2019-03-27T17:40:48.367Z,11.30
2019-03-27T17:43:17.080Z,11.10
2019-03-27T17:45:45.833Z,11.30
2019-03-27T17:48:14.504Z,11.60
2019-03-27T17:50:44.867Z,11.40
2019-03-27T17:53:13.581Z,10.90
2019-03-27T17:55:42.699Z,10.70
2019-03-27T17:58:11.332Z,10.60
2019-03-27T18:00:48.686Z,10.60
2019-03-27T18:03:17.490Z,10.50
2019-03-27T18:05:46.316Z,10.60
2019-03-27T18:08:15.228Z,10.90
2019-03-27T18:10:43.772Z,10.90
2019-03-27T18:13:12.352Z,11.20
2019-03-27T18:15:41.193Z,11.30
2019-03-27T18:18:09.758Z,11.40
2019-03-27T18:20:38.482Z,11.40
2019-03-27T18:23:07.031Z,11.60
2019-03-27T18:25:35.528Z,11.70
2019-03-27T18:28:04.073Z,11.60
2019-03-27T18:30:32.550Z,11.90
2019-03-27T18:33:01.220Z,11.80
2019-03-27T18:35:29.678Z,11.70
2019-03-27T18:37:58.187Z,12.00
2019-03-27T18:40:26.754Z,12.20
2019-03-27T18:42:55.694Z,12.20
2019-03-27T18:45:24.225Z,12.20
2019-03-27T18:47:52.702Z,12.20
2019-03-27T18:50:21.196Z,12.10
2019-03-27T18:52:49.654Z,12.20
2019-03-27T18:55:26.288Z,12.10
2019-03-27T18:57:59.525Z,12.20
2019-03-27T19:00:18.923Z,12.30
2019-03-27T19:02:47.446Z,12.50
2019-03-27T19:05:16.017Z,12.40
2019-03-27T19:07:44.562Z,12.30
2019-03-27T19:10:13.370Z,12.40
2019-03-27T19:12:41.901Z,12.50
2019-03-27T19:15:10.515Z,12.40
2019-03-27T19:17:39.011Z,12.30
2019-03-27T19:20:08.127Z,12.20
2019-03-27T19:22:36.675Z,12.10
2019-03-27T19:25:07.381Z,12.00
2019-03-27T19:27:36.107Z,12.00
2019-03-27T19:30:07.611Z,11.70
2019-03-27T19:32:36.239Z,11.30
2019-03-27T19:35:06.483Z,11.30
2019-03-27T19:37:34.938Z,11.10
2019-03-27T19:40:05.156Z,11.10
2019-03-27T19:42:33.858Z,11.00
2019-03-27T19:45:05.799Z,11.00
2019-03-27T19:47:40.863Z,10.90
2019-03-27T19:50:11.497Z,11.00
2019-03-27T19:52:47.970Z,10.90
2019-03-27T19:55:17.297Z,10.90
2019-03-27T19:57:46.712Z,10.70
2019-03-27T20:00:16.243Z,10.70
2019-03-27T20:02:45.888Z,10.50
2019-03-27T20:05:14.679Z,10.50
2019-03-27T20:07:44.257Z,10.20
2019-03-27T20:10:15.425Z,9.90
2019-03-27T20:12:43.886Z,10.30
2019-03-27T20:15:12.974Z,10.60
2019-03-27T20:17:41.860Z,10.60
2019-03-27T20:20:10.555Z,10.60
2019-03-27T20:22:39.151Z,10.80
2019-03-27T20:25:09.925Z,10.80
2019-03-27T20:27:38.446Z,10.60
2019-03-27T20:30:10.037Z,10.40
2019-03-27T20:32:38.500Z,10.10
2019-03-27T20:35:07.555Z,10.30
2019-03-27T20:37:36.099Z,10.50
2019-03-27T20:40:06.598Z,10.60
2019-03-27T20:42:35.220Z,10.20
2019-03-27T20:45:06.198Z,10.10
2019-03-27T20:47:34.734Z,9.90
2019-03-27T20:50:03.939Z,10.00
2019-03-27T20:52:32.407Z,10.10
2019-03-27T20:55:00.869Z,10.00
2019-03-27T20:57:29.332Z,9.80
2019-03-27T20:59:57.806Z,10.00
2019-03-27T21:02:26.301Z,10.00
2019-03-27T21:04:54.826Z,10.20
2019-03-27T21:07:24.700Z,10.40
2019-03-27T21:09:53.555Z,10.60
2019-03-27T21:12:30.187Z,10.40
2019-03-27T21:15:03.519Z,10.50
2019-03-27T21:17:46.743Z,10.50
2019-03-27T21:20:19.980Z,10.40
2019-03-27T21:28:52.124Z,10.20
2019-03-27T21:37:25.780Z,10.10
2019-03-27T21:48:56.423Z,10.30
2019-03-27T21:58:23.755Z,9.80
2019-03-27T22:00:52.348Z,10.00
2019-03-27T22:03:20.975Z,10.20
2019-03-27T22:05:49.635Z,10.10
2019-03-27T22:08:18.299Z,10.10
2019-03-27T22:10:46.986Z,10.20
2019-03-27T22:13:15.575Z,10.20
2019-03-27T22:15:44.174Z,10.20
2019-03-27T22:18:12.803Z,10.30
2019-03-27T22:20:41.387Z,10.20
2019-03-27T22:23:09.987Z,10.30
2019-03-27T22:25:38.592Z,10.40
2019-03-27T22:28:07.213Z,10.50
2019-03-27T22:30:35.806Z,10.50
2019-03-27T22:33:04.461Z,10.50
2019-03-27T22:35:33.087Z,10.30
2019-03-27T22:38:02.096Z,10.30
2019-03-27T22:40:30.695Z,10.30
2019-03-27T22:42:59.294Z,10.20
2019-03-27T22:45:27.904Z,10.20
2019-03-27T22:47:56.509Z,10.20
2019-03-27T22:50:25.095Z,10.10
2019-03-27T22:52:53.730Z,10.20
2019-03-27T22:55:22.316Z,10.20
2019-03-27T22:57:50.907Z,10.20
2019-03-27T23:00:21.779Z,10.10
2019-03-27T23:02:50.372Z,10.00
2019-03-27T23:05:19.057Z,9.90
2019-03-27T23:07:47.661Z,9.70
2019-03-27T23:10:16.308Z,10.00
2019-03-27T23:12:44.915Z,10.10
2019-03-27T23:15:14.039Z,10.50
2019-03-27T23:17:42.654Z,10.60
2019-03-27T23:20:11.600Z,10.40
2019-03-27T23:22:40.192Z,10.40
2019-03-27T23:25:09.931Z,10.30
2019-03-27T23:27:38.522Z,10.20
2019-03-27T23:30:09.863Z,10.20
2019-03-27T23:32:38.484Z,10.10
2019-03-27T23:35:10.271Z,10.30
2019-03-27T23:37:38.869Z,10.50
2019-03-27T23:40:08.229Z,10.50
2019-03-27T23:42:36.828Z,10.70
2019-03-27T23:45:07.869Z,10.70
2019-03-27T23:47:36.826Z,10.60
2019-03-27T23:50:08.533Z,10.60
2019-03-27T23:52:37.250Z,10.60
2019-03-27T23:55:07.572Z,10.50
2019-03-27T23:57:36.272Z,10.50
